createdAt,value
2023-05-19T00:00:07.109Z,11.59
2023-05-19T00:02:56.357Z,11.36
2023-05-19T00:05:25.045Z,11.46
2023-05-19T00:07:52.896Z,11.43
2023-05-19T00:10:20.424Z,11.78
2023-05-19T00:12:47.875Z,11.54
2023-05-19T00:15:15.499Z,11.66
2023-05-19T00:17:42.825Z,11.61
2023-05-19T00:20:12.157Z,11.55
2023-05-19T00:22:39.431Z,11.57
2023-05-19T00:25:07.025Z,11.64
2023-05-19T00:27:34.272Z,11.43
2023-05-19T00:30:01.276Z,11.73
2023-05-19T00:32:28.733Z,11.78
2023-05-19T00:34:56.060Z,11.58
2023-05-19T00:37:23.543Z,11.57
2023-05-19T00:39:50.647Z,11.43
2023-05-19T00:42:18.057Z,11.53
2023-05-19T00:44:45.032Z,11.66
2023-05-19T00:47:12.490Z,11.67
2023-05-19T00:49:39.471Z,11.68
2023-05-19T00:52:07.132Z,12.11
2023-05-19T00:54:34.709Z,11.64
2023-05-19T00:57:02.094Z,12.08
2023-05-19T00:59:29.105Z,11.85
2023-05-19T01:01:56.557Z,11.91
2023-05-19T01:04:25.666Z,12.01
2023-05-19T01:06:55.495Z,12.15
2023-05-19T01:09:22.970Z,11.87
2023-05-19T01:11:50.691Z,11.50
2023-05-19T01:14:18.381Z,11.87
2023-05-19T01:17:05.719Z,11.56
2023-05-19T01:19:41.614Z,11.26
2023-05-19T01:22:14.523Z,11.68
2023-05-19T01:25:02.889Z,11.50
2023-05-19T01:28:01.528Z,11.76
2023-05-19T01:30:37.613Z,11.94
2023-05-19T01:33:09.276Z,11.94
2023-05-19T01:35:38.370Z,12.29
2023-05-19T01:38:09.596Z,11.92
2023-05-19T01:40:38.483Z,11.87
2023-05-19T01:43:07.414Z,11.85
2023-05-19T01:45:34.679Z,11.74
2023-05-19T01:48:04.318Z,11.91
2023-05-19T01:50:32.503Z,11.79
2023-05-19T01:53:00.574Z,11.86
2023-05-19T01:55:27.984Z,12.17
2023-05-19T01:58:11.313Z,12.13
2023-05-19T02:01:05.846Z,11.86
2023-05-19T02:03:56.360Z,11.78
2023-05-19T02:06:54.119Z,11.75
2023-05-19T02:09:38.812Z,11.82
2023-05-19T02:12:20.857Z,11.88
2023-05-19T02:14:55.987Z,12.08
2023-05-19T02:17:23.681Z,12.14
2023-05-19T02:19:51.023Z,12.03
2023-05-19T02:22:17.986Z,11.85
2023-05-19T02:24:46.661Z,12.25
2023-05-19T02:27:13.935Z,12.07
2023-05-19T02:29:41.487Z,11.91
2023-05-19T02:32:08.540Z,11.63
2023-05-19T02:34:35.886Z,11.83
2023-05-19T02:37:03.380Z,11.96
2023-05-19T02:39:35.274Z,11.97
2023-05-19T02:42:02.772Z,12.15
2023-05-19T02:44:30.239Z,12.08
2023-05-19T02:46:57.287Z,12.00
2023-05-19T02:49:24.776Z,11.81
2023-05-19T02:51:51.726Z,11.93
2023-05-19T02:54:19.072Z,12.14
2023-05-19T02:56:47.082Z,12.09
2023-05-19T02:59:14.319Z,12.41
2023-05-19T03:01:41.303Z,12.55
2023-05-19T03:04:08.770Z,12.60
2023-05-19T03:06:36.536Z,12.59
2023-05-19T03:09:04.036Z,12.45
2023-05-19T03:11:31.710Z,12.24
2023-05-19T03:13:59.187Z,12.25
2023-05-19T03:16:28.223Z,12.18
2023-05-19T03:18:56.175Z,12.81
2023-05-19T03:21:23.236Z,12.82
2023-05-19T03:23:50.517Z,12.62
2023-05-19T03:26:17.939Z,12.42
2023-05-19T03:28:45.231Z,12.69
2023-05-19T03:31:13.403Z,12.95
2023-05-19T03:33:41.263Z,12.92
2023-05-19T03:36:08.341Z,13.27
2023-05-19T03:38:35.762Z,13.14
2023-05-19T03:41:03.558Z,12.93
2023-05-19T03:43:30.802Z,12.83
2023-05-19T03:45:58.302Z,12.99
2023-05-19T03:48:26.959Z,12.53
2023-05-19T03:50:54.456Z,12.78
2023-05-19T03:53:21.700Z,13.02
2023-05-19T03:55:49.786Z,12.92
2023-05-19T03:58:17.053Z,13.19
2023-05-19T04:00:44.028Z,13.38
2023-05-19T04:03:11.750Z,12.83
2023-05-19T04:05:39.042Z,12.58
2023-05-19T04:08:06.276Z,12.96
2023-05-19T04:10:34.025Z,13.14
2023-05-19T04:13:01.429Z,12.89
2023-05-19T04:15:28.504Z,12.92
2023-05-19T04:17:56.409Z,13.46
2023-05-19T04:20:23.584Z,13.11
2023-05-19T04:22:51.224Z,13.14
2023-05-19T04:25:20.309Z,13.33
2023-05-19T04:27:48.947Z,12.42
2023-05-19T04:30:22.343Z,12.18
2023-05-19T04:32:51.148Z,12.14
2023-05-19T04:35:18.205Z,12.01
2023-05-19T04:37:48.726Z,12.44
2023-05-19T04:40:17.651Z,12.36
2023-05-19T04:42:46.101Z,12.72
2023-05-19T04:45:14.271Z,12.59
2023-05-19T04:47:42.710Z,13.22
2023-05-19T04:50:11.323Z,13.53
2023-05-19T04:52:38.595Z,13.07
2023-05-19T04:55:06.257Z,12.24
2023-05-19T04:57:33.930Z,12.62
2023-05-19T05:00:01.016Z,12.35
2023-05-19T05:02:29.087Z,13.07
2023-05-19T05:04:56.776Z,12.64
2023-05-19T05:07:24.255Z,12.94
2023-05-19T05:09:51.778Z,12.88
2023-05-19T05:12:19.536Z,13.21
2023-05-19T05:14:47.111Z,13.74
2023-05-19T05:17:15.334Z,13.53
2023-05-19T05:19:42.747Z,13.48
2023-05-19T05:22:10.399Z,14.13
2023-05-19T05:24:37.921Z,14.38
2023-05-19T05:27:05.957Z,14.39
2023-05-19T05:29:33.111Z,14.08
2023-05-19T05:32:01.193Z,14.32
2023-05-19T05:34:28.443Z,14.83
2023-05-19T05:36:56.146Z,14.96
2023-05-19T05:39:24.074Z,14.68
2023-05-19T05:41:51.514Z,14.35
2023-05-19T05:44:18.499Z,14.79
2023-05-19T05:46:46.475Z,15.64
2023-05-19T05:49:13.918Z,16.11
2023-05-19T05:51:42.991Z,17.16
2023-05-19T05:54:17.867Z,17.00
2023-05-19T05:56:46.010Z,17.44
2023-05-19T05:59:13.358Z,17.13
2023-05-19T06:01:42.173Z,17.71
2023-05-19T06:04:09.163Z,16.60
2023-05-19T06:06:38.241Z,15.55
2023-05-19T06:09:05.628Z,15.93
2023-05-19T06:11:32.970Z,15.00
2023-05-19T06:13:59.976Z,14.64
2023-05-19T06:16:30.685Z,14.62
2023-05-19T06:18:59.121Z,14.82
2023-05-19T06:21:26.825Z,14.86
2023-05-19T06:23:54.359Z,14.44
2023-05-19T06:26:21.734Z,14.80
2023-05-19T06:28:48.828Z,15.53
2023-05-19T06:31:16.675Z,14.79
2023-05-19T06:33:43.691Z,14.26
2023-05-19T06:36:11.075Z,14.10
2023-05-19T06:38:38.539Z,13.86
2023-05-19T06:41:05.835Z,14.36
2023-05-19T06:43:32.990Z,14.34
2023-05-19T06:46:00.411Z,14.64
2023-05-19T06:48:27.509Z,14.37
2023-05-19T06:50:54.967Z,15.05
2023-05-19T06:53:22.502Z,15.12
2023-05-19T06:55:59.285Z,14.78
2023-05-19T06:58:28.124Z,14.90
2023-05-19T07:00:55.375Z,15.56
2023-05-19T07:03:22.581Z,15.96
2023-05-19T07:05:50.858Z,15.76
2023-05-19T07:08:17.993Z,15.50
2023-05-19T07:10:45.464Z,15.27
2023-05-19T07:13:13.164Z,15.22
2023-05-19T07:15:40.626Z,15.30
2023-05-19T07:18:07.840Z,15.82
2023-05-19T07:20:35.564Z,16.34
2023-05-19T07:23:05.533Z,15.82
2023-05-19T07:25:33.486Z,15.50
2023-05-19T07:28:00.862Z,15.43
2023-05-19T07:30:29.098Z,15.29
2023-05-19T07:32:56.208Z,15.47
2023-05-19T07:35:24.222Z,15.60
2023-05-19T07:37:52.673Z,16.46
2023-05-19T07:40:20.225Z,16.63
2023-05-19T07:42:50.982Z,16.64
2023-05-19T07:45:18.495Z,16.60
2023-05-19T07:47:45.705Z,16.35
2023-05-19T07:50:13.464Z,16.10
2023-05-19T07:52:40.784Z,16.15
2023-05-19T07:55:08.272Z,16.26
2023-05-19T07:57:35.412Z,16.68
2023-05-19T08:00:03.018Z,17.03
2023-05-19T08:02:30.589Z,16.05
2023-05-19T08:04:58.753Z,16.54
2023-05-19T08:07:25.879Z,15.98
2023-05-19T08:09:53.434Z,16.33
2023-05-19T08:12:21.276Z,16.40
2023-05-19T08:14:48.902Z,16.18
2023-05-19T08:17:16.423Z,16.36
2023-05-19T08:19:44.247Z,15.63
2023-05-19T08:22:11.244Z,16.32
2023-05-19T08:24:39.409Z,17.17
2023-05-19T08:27:06.917Z,16.29
2023-05-19T08:29:34.433Z,16.75
2023-05-19T08:32:02.610Z,16.81
2023-05-19T08:34:30.527Z,16.87
2023-05-19T08:36:57.960Z,16.94
2023-05-19T08:39:27.257Z,16.99
2023-05-19T08:41:54.933Z,15.69
2023-05-19T08:44:22.966Z,15.51
2023-05-19T08:46:50.189Z,15.49
2023-05-19T08:49:20.029Z,16.35
2023-05-19T08:52:03.192Z,16.04
2023-05-19T08:54:35.324Z,16.43
2023-05-19T08:57:02.493Z,16.29
2023-05-19T08:59:30.924Z,16.43
2023-05-19T09:01:58.373Z,16.40
2023-05-19T09:04:29.952Z,16.33
2023-05-19T09:06:57.211Z,16.72
2023-05-19T09:09:25.075Z,16.74
2023-05-19T09:11:52.223Z,17.25
2023-05-19T09:14:19.746Z,18.02
2023-05-19T09:16:51.183Z,17.51
2023-05-19T09:19:20.957Z,16.42
2023-05-19T09:22:00.023Z,16.37
2023-05-19T09:24:27.791Z,16.31
2023-05-19T09:26:58.530Z,16.27
2023-05-19T09:29:27.394Z,16.38
2023-05-19T09:32:04.910Z,16.13
2023-05-19T09:34:32.904Z,16.51
2023-05-19T09:37:00.103Z,16.49
2023-05-19T09:39:29.031Z,17.01
2023-05-19T09:41:59.367Z,18.20
2023-05-19T09:44:31.303Z,16.45
2023-05-19T09:46:58.997Z,16.65
2023-05-19T09:49:31.460Z,16.54
2023-05-19T09:52:04.257Z,16.69
2023-05-19T09:54:34.850Z,16.69
2023-05-19T09:57:03.941Z,15.83
2023-05-19T09:59:33.765Z,16.81
2023-05-19T10:02:02.692Z,16.51
2023-05-19T10:04:31.270Z,16.65
2023-05-19T10:07:05.772Z,17.51
2023-05-19T10:09:34.328Z,16.86
2023-05-19T10:12:02.931Z,16.68
2023-05-19T10:14:30.863Z,17.99
2023-05-19T10:16:59.570Z,17.34
2023-05-19T10:19:28.303Z,17.98
2023-05-19T10:21:56.367Z,17.76
2023-05-19T10:24:23.890Z,18.76
2023-05-19T10:26:56.883Z,19.06
2023-05-19T10:29:28.660Z,18.30
2023-05-19T10:32:00.088Z,18.72
2023-05-19T10:34:50.704Z,18.69
2023-05-19T10:37:42.239Z,18.92
2023-05-19T10:40:15.015Z,19.54
2023-05-19T10:42:58.845Z,19.03
2023-05-19T10:45:29.257Z,18.53
2023-05-19T10:47:57.233Z,18.88
2023-05-19T10:50:24.737Z,18.51
2023-05-19T10:52:56.362Z,19.69
2023-05-19T10:55:49.528Z,20.18
2023-05-19T10:58:39.662Z,19.98
2023-05-19T11:01:14.493Z,19.30
2023-05-19T11:04:05.366Z,18.98
2023-05-19T11:06:36.288Z,18.97
2023-05-19T11:09:15.988Z,19.30
2023-05-19T11:11:50.392Z,19.66
2023-05-19T11:14:27.690Z,20.67
2023-05-19T11:16:59.648Z,20.55
2023-05-19T11:19:32.690Z,20.07
2023-05-19T11:22:13.706Z,19.31
2023-05-19T11:24:44.451Z,18.92
2023-05-19T11:27:26.521Z,18.97
2023-05-19T11:29:55.138Z,18.21
2023-05-19T11:32:26.560Z,18.72
2023-05-19T11:34:55.837Z,18.69
2023-05-19T11:37:23.261Z,19.25
2023-05-19T11:39:50.822Z,19.51
2023-05-19T11:42:18.152Z,19.14
2023-05-19T11:44:48.434Z,18.72
2023-05-19T11:47:17.217Z,18.93
2023-05-19T11:49:52.098Z,19.21
2023-05-19T11:52:22.388Z,17.97
2023-05-19T11:54:49.684Z,18.40
2023-05-19T11:57:17.434Z,18.36
2023-05-19T11:59:49.960Z,18.94
2023-05-19T12:02:28.436Z,19.45
2023-05-19T12:04:56.440Z,19.08
2023-05-19T12:07:25.156Z,19.29
2023-05-19T12:09:53.064Z,21.35
2023-05-19T12:12:21.985Z,20.13
2023-05-19T12:14:53.046Z,19.33
2023-05-19T12:17:21.450Z,17.95
2023-05-19T12:19:49.476Z,18.05
2023-05-19T12:22:17.787Z,17.51
2023-05-19T12:24:45.448Z,18.06
2023-05-19T12:27:21.320Z,18.33
2023-05-19T12:29:54.598Z,18.62
2023-05-19T12:32:27.127Z,18.93
2023-05-19T12:34:56.064Z,18.13
2023-05-19T12:37:27.801Z,18.94
2023-05-19T12:39:56.361Z,18.07
2023-05-19T12:42:25.699Z,19.16
2023-05-19T12:44:55.029Z,19.43
2023-05-19T12:47:23.227Z,18.71
2023-05-19T12:50:00.886Z,18.90
2023-05-19T12:52:29.679Z,18.29
2023-05-19T12:55:07.237Z,17.62
2023-05-19T12:57:36.201Z,18.54
2023-05-19T13:00:21.401Z,18.97
2023-05-19T13:02:57.825Z,18.32
2023-05-19T13:05:25.768Z,17.65
2023-05-19T13:08:01.983Z,17.96
2023-05-19T13:10:30.111Z,18.19
2023-05-19T13:12:59.184Z,19.32
2023-05-19T13:15:28.369Z,19.71
2023-05-19T13:17:56.039Z,19.54
2023-05-19T13:20:26.292Z,18.81
2023-05-19T13:22:55.564Z,18.91
2023-05-19T13:25:22.898Z,18.66
2023-05-19T13:27:51.362Z,19.18
2023-05-19T13:30:19.459Z,18.62
2023-05-19T13:32:47.221Z,18.39
2023-05-19T13:35:16.240Z,18.32
2023-05-19T13:37:43.717Z,18.73
2023-05-19T13:40:11.368Z,18.53
2023-05-19T13:42:39.265Z,17.95
2023-05-19T13:45:07.151Z,17.67
2023-05-19T13:47:34.501Z,17.89
2023-05-19T13:50:03.146Z,17.68
2023-05-19T13:52:30.707Z,18.07
2023-05-19T13:54:58.138Z,18.60
2023-05-19T13:57:26.493Z,18.22
2023-05-19T14:00:03.346Z,18.33
2023-05-19T14:02:34.189Z,18.74
2023-05-19T14:05:01.985Z,18.94
2023-05-19T14:07:29.241Z,18.41
2023-05-19T14:09:57.084Z,18.23
2023-05-19T14:12:35.368Z,18.00
2023-05-19T14:15:08.996Z,18.00
2023-05-19T14:17:36.708Z,17.75
2023-05-19T14:20:04.802Z,17.93
2023-05-19T14:22:32.419Z,18.39
2023-05-19T14:25:00.710Z,18.47
2023-05-19T14:27:28.105Z,17.54
2023-05-19T14:29:55.465Z,17.96
2023-05-19T14:32:23.042Z,17.84
2023-05-19T14:34:53.014Z,17.20
2023-05-19T14:37:20.905Z,17.49
2023-05-19T14:39:47.937Z,17.55
2023-05-19T14:42:15.524Z,17.87
2023-05-19T14:44:42.690Z,16.97
2023-05-19T14:47:11.442Z,17.10
2023-05-19T14:49:38.599Z,17.39
2023-05-19T14:52:06.366Z,17.27
2023-05-19T14:54:34.095Z,17.40
2023-05-19T14:57:01.818Z,17.24
2023-05-19T14:59:29.812Z,16.49
2023-05-19T15:01:57.013Z,16.47
2023-05-19T15:04:24.180Z,16.40
2023-05-19T15:07:05.984Z,16.71
2023-05-19T15:09:36.662Z,16.38
2023-05-19T15:12:04.179Z,16.41
2023-05-19T15:14:31.431Z,16.61
2023-05-19T15:16:59.262Z,16.53
2023-05-19T15:19:26.899Z,16.76
2023-05-19T15:21:54.409Z,16.54
2023-05-19T15:24:21.949Z,16.63
2023-05-19T15:26:49.759Z,16.47
2023-05-19T15:29:16.870Z,16.08
2023-05-19T15:31:44.465Z,16.05
2023-05-19T15:34:11.875Z,15.82
2023-05-19T15:36:39.281Z,15.62
2023-05-19T15:39:06.717Z,16.20
2023-05-19T15:41:34.271Z,16.29
2023-05-19T15:44:02.528Z,16.25
2023-05-19T15:46:30.761Z,16.54
2023-05-19T15:48:58.213Z,16.15
2023-05-19T15:51:26.045Z,15.99
2023-05-19T15:53:53.190Z,16.14
2023-05-19T15:56:21.697Z,15.80
2023-05-19T15:58:49.201Z,16.10
2023-05-19T16:01:16.973Z,16.04
2023-05-19T16:03:45.657Z,15.89
2023-05-19T16:06:13.750Z,15.57
2023-05-19T16:08:40.984Z,15.32
2023-05-19T16:11:08.321Z,15.61
2023-05-19T16:13:35.500Z,15.66
2023-05-19T16:16:02.962Z,15.84
2023-05-19T16:18:30.364Z,15.66
2023-05-19T16:20:57.769Z,15.60
2023-05-19T16:23:27.600Z,15.26
2023-05-19T16:25:55.473Z,15.26
2023-05-19T16:28:25.015Z,15.45
2023-05-19T16:30:52.520Z,14.91
2023-05-19T16:33:19.776Z,15.13
2023-05-19T16:35:47.049Z,15.10
2023-05-19T16:38:14.122Z,14.88
2023-05-19T16:40:41.911Z,14.74
2023-05-19T16:43:08.902Z,14.75
2023-05-19T16:45:36.337Z,14.76
2023-05-19T16:48:03.829Z,14.54
2023-05-19T16:50:31.693Z,14.63
2023-05-19T16:52:58.698Z,14.56
2023-05-19T16:55:26.984Z,14.68
2023-05-19T16:57:54.149Z,14.73
2023-05-19T17:00:21.836Z,14.58
2023-05-19T17:02:49.330Z,15.09
2023-05-19T17:05:16.952Z,14.89
2023-05-19T17:07:44.365Z,14.88
2023-05-19T17:10:13.236Z,14.78
2023-05-19T17:12:40.196Z,14.78
2023-05-19T17:15:08.083Z,14.78
2023-05-19T17:17:35.468Z,14.69
2023-05-19T17:20:03.467Z,14.81
2023-05-19T17:22:30.936Z,14.80
2023-05-19T17:24:58.345Z,15.02
2023-05-19T17:27:25.536Z,14.81
2023-05-19T17:29:53.437Z,14.91
2023-05-19T17:32:25.937Z,14.87
2023-05-19T17:34:53.686Z,14.63
2023-05-19T17:37:23.586Z,14.74
2023-05-19T17:39:51.450Z,14.47
2023-05-19T17:42:18.542Z,14.84
2023-05-19T17:44:46.043Z,14.51
2023-05-19T17:47:13.383Z,14.52
2023-05-19T17:49:41.524Z,14.40
2023-05-19T17:52:09.713Z,14.60
2023-05-19T17:54:37.689Z,14.36
2023-05-19T17:57:08.342Z,14.47
2023-05-19T17:59:36.852Z,14.37
2023-05-19T18:02:04.917Z,14.35
2023-05-19T18:04:34.954Z,14.16
2023-05-19T18:07:03.734Z,14.12
2023-05-19T18:09:33.015Z,14.36
2023-05-19T18:12:02.441Z,14.13
2023-05-19T18:14:30.608Z,14.20
2023-05-19T18:16:58.216Z,14.46
2023-05-19T18:19:25.950Z,14.49
2023-05-19T18:21:53.310Z,14.45
2023-05-19T18:24:20.885Z,14.47
2023-05-19T18:26:48.043Z,14.51
2023-05-19T18:29:15.744Z,14.37
2023-05-19T18:31:43.074Z,14.29
2023-05-19T18:34:10.443Z,14.41
2023-05-19T18:36:37.714Z,14.38
2023-05-19T18:39:05.418Z,14.30
2023-05-19T18:41:32.515Z,14.29
2023-05-19T18:44:00.484Z,14.28
2023-05-19T18:46:27.961Z,14.40
2023-05-19T18:48:55.389Z,14.57
2023-05-19T18:51:22.681Z,14.38
2023-05-19T18:53:50.817Z,14.26
2023-05-19T18:56:28.022Z,14.27
2023-05-19T18:58:55.496Z,14.36
2023-05-19T19:01:23.014Z,13.83
2023-05-19T19:03:50.951Z,14.15
2023-05-19T19:06:20.780Z,14.16
2023-05-19T19:08:48.455Z,13.66
2023-05-19T19:11:15.523Z,13.74
2023-05-19T19:13:43.835Z,13.57
2023-05-19T19:16:11.097Z,13.51
2023-05-19T19:18:38.667Z,13.53
2023-05-19T19:21:06.399Z,13.80
2023-05-19T19:23:34.515Z,13.87
2023-05-19T19:26:01.888Z,14.02
2023-05-19T19:28:29.638Z,14.07
2023-05-19T19:30:56.894Z,14.28
2023-05-19T19:33:25.090Z,14.11
2023-05-19T19:35:52.468Z,14.01
2023-05-19T19:38:19.839Z,13.97
2023-05-19T19:40:47.177Z,13.83
2023-05-19T19:43:14.674Z,14.21
2023-05-19T19:45:42.204Z,14.11
2023-05-19T19:48:09.687Z,14.04
2023-05-19T19:50:37.135Z,14.05
2023-05-19T19:53:04.896Z,14.23
2023-05-19T19:55:31.969Z,14.12
2023-05-19T19:58:00.111Z,14.08
2023-05-19T20:00:27.167Z,14.24
2023-05-19T20:03:03.430Z,14.08
2023-05-19T20:05:32.093Z,14.14
2023-05-19T20:07:59.671Z,14.23
2023-05-19T20:10:26.761Z,14.18
2023-05-19T20:12:54.366Z,14.25
2023-05-19T20:15:21.363Z,14.14
2023-05-19T20:17:48.635Z,14.10
2023-05-19T20:20:16.407Z,14.21
2023-05-19T20:22:46.143Z,14.14
2023-05-19T20:25:13.174Z,14.04
2023-05-19T20:27:40.829Z,13.80
2023-05-19T20:30:08.401Z,13.64
2023-05-19T20:32:36.214Z,13.68
2023-05-19T20:35:03.308Z,13.74
2023-05-19T20:37:30.723Z,13.98
2023-05-19T20:39:57.771Z,13.80
2023-05-19T20:42:25.206Z,13.87
2023-05-19T20:44:52.478Z,14.07
2023-05-19T20:47:20.253Z,13.98
2023-05-19T20:49:48.352Z,13.95
2023-05-19T20:52:16.380Z,14.00
2023-05-19T20:54:43.654Z,14.03
2023-05-19T20:57:15.233Z,13.76
2023-05-19T20:59:42.367Z,13.98
2023-05-19T21:02:09.708Z,13.85
2023-05-19T21:04:37.939Z,13.91
2023-05-19T21:07:05.503Z,13.87
2023-05-19T21:09:32.511Z,13.85
2023-05-19T21:12:00.061Z,14.17
2023-05-19T21:14:27.307Z,13.85
2023-05-19T21:16:56.301Z,13.84
2023-05-19T21:19:23.551Z,13.84
2023-05-19T21:21:51.373Z,13.77
2023-05-19T21:24:18.497Z,13.69
2023-05-19T21:26:46.212Z,13.87
2023-05-19T21:29:13.504Z,13.63
2023-05-19T21:31:41.025Z,13.43
2023-05-19T21:34:08.340Z,13.63
2023-05-19T21:36:36.117Z,13.48
2023-05-19T21:39:04.647Z,13.63
2023-05-19T21:41:32.570Z,13.63
2023-05-19T21:43:59.777Z,13.81
2023-05-19T21:46:29.312Z,13.74
2023-05-19T21:48:56.700Z,13.71
2023-05-19T21:51:24.037Z,13.47
2023-05-19T21:53:50.966Z,13.67
2023-05-19T21:56:18.497Z,13.66
2023-05-19T21:58:45.624Z,13.66
2023-05-19T22:01:13.374Z,13.66
2023-05-19T22:03:40.834Z,13.47
2023-05-19T22:06:08.478Z,13.62
2023-05-19T22:08:35.416Z,13.40
2023-05-19T22:11:02.927Z,13.53
2023-05-19T22:13:30.418Z,13.54
2023-05-19T22:15:58.573Z,13.55
2023-05-19T22:18:25.883Z,13.70
2023-05-19T22:20:53.475Z,13.42
2023-05-19T22:23:21.021Z,13.72
2023-05-19T22:25:48.699Z,13.65
2023-05-19T22:28:15.986Z,13.45
2023-05-19T22:30:44.289Z,13.38
2023-05-19T22:33:12.130Z,13.44
2023-05-19T22:35:39.912Z,13.55
2023-05-19T22:38:08.824Z,13.24
2023-05-19T22:40:38.372Z,13.42
2023-05-19T22:43:05.384Z,13.63
2023-05-19T22:45:34.658Z,13.58
2023-05-19T22:48:03.008Z,13.63
2023-05-19T22:50:30.301Z,13.64
2023-05-19T22:52:57.328Z,13.64
2023-05-19T22:55:25.135Z,13.58
2023-05-19T22:57:52.308Z,13.79
2023-05-19T23:00:20.992Z,13.94
2023-05-19T23:02:48.487Z,14.11
2023-05-19T23:05:16.054Z,14.00
2023-05-19T23:07:43.064Z,14.00
2023-05-19T23:10:11.085Z,13.93
2023-05-19T23:12:38.159Z,13.82
2023-05-19T23:15:06.455Z,13.75
2023-05-19T23:17:33.738Z,13.82
2023-05-19T23:20:01.221Z,13.97
2023-05-19T23:22:28.419Z,13.94
2023-05-19T23:24:55.932Z,14.12
2023-05-19T23:27:22.931Z,14.05
2023-05-19T23:29:51.202Z,14.10
2023-05-19T23:32:18.605Z,13.69
2023-05-19T23:34:47.575Z,13.71
2023-05-19T23:37:14.678Z,13.66
2023-05-19T23:39:42.050Z,13.54
2023-05-19T23:42:09.256Z,13.40
2023-05-19T23:44:36.567Z,13.43
2023-05-19T23:47:03.907Z,13.71
2023-05-19T23:49:31.507Z,13.34
2023-05-19T23:51:58.916Z,13.38
2023-05-19T23:54:26.804Z,13.64
2023-05-19T23:56:56.053Z,13.66
2023-05-19T23:59:23.342Z,13.20
